createdAt,value
2019-02-06T00:01:05.427Z,19.53
2019-02-06T00:03:34.064Z,20.47
2019-02-06T00:06:02.677Z,20.83
2019-02-06T00:08:31.480Z,25.47
2019-02-06T00:11:00.014Z,24.90
2019-02-06T00:13:28.884Z,24.83
2019-02-06T00:15:57.793Z,27.87
2019-02-06T00:18:28.217Z,25.80
2019-02-06T00:20:57.436Z,24.77
2019-02-06T00:23:25.972Z,27.33
2019-02-06T00:25:54.833Z,27.47
2019-02-06T00:28:23.510Z,27.17
2019-02-06T00:30:52.435Z,26.40
2019-02-06T00:33:21.181Z,26.83
2019-02-06T00:35:50.079Z,25.20
2019-02-06T00:38:19.439Z,23.73
2019-02-06T00:40:48.030Z,21.43
2019-02-06T00:43:16.631Z,21.40
2019-02-06T00:45:45.462Z,24.23
2019-02-06T00:48:14.186Z,30.33
2019-02-06T00:50:42.757Z,34.77
2019-02-06T00:53:11.306Z,41.70
2019-02-06T00:55:39.869Z,36.80
2019-02-06T00:58:08.422Z,36.03
2019-02-06T01:00:37.162Z,31.30
2019-02-06T01:03:06.763Z,34.17
2019-02-06T01:05:38.414Z,33.40
2019-02-06T01:08:06.337Z,32.10
2019-02-06T01:10:34.863Z,36.03
2019-02-06T01:13:03.328Z,32.47
2019-02-06T01:15:31.913Z,32.10
2019-02-06T01:18:00.534Z,32.50
2019-02-06T01:20:29.010Z,34.27
2019-02-06T01:22:58.236Z,33.50
2019-02-06T01:25:26.702Z,36.43
2019-02-06T01:27:55.248Z,35.40
2019-02-06T01:30:25.362Z,37.93
2019-02-06T01:32:53.912Z,36.73
2019-02-06T01:35:22.466Z,36.17
2019-02-06T01:37:51.042Z,43.67
2019-02-06T01:40:21.139Z,35.47
2019-02-06T01:42:49.847Z,44.17
2019-02-06T01:45:20.024Z,38.93
2019-02-06T01:47:48.660Z,36.83
2019-02-06T01:50:18.957Z,41.70
2019-02-06T01:52:47.748Z,37.43
2019-02-06T01:55:16.600Z,39.87
2019-02-06T01:57:45.308Z,38.07
2019-02-06T02:00:19.012Z,37.63
2019-02-06T02:02:47.911Z,39.67
2019-02-06T02:05:18.803Z,38.20
2019-02-06T02:07:48.171Z,39.87
2019-02-06T02:10:17.591Z,38.67
2019-02-06T02:12:46.591Z,36.43
2019-02-06T02:15:17.255Z,37.37
2019-02-06T02:17:45.953Z,38.07
2019-02-06T02:20:19.540Z,40.63
2019-02-06T02:22:48.426Z,38.80
2019-02-06T02:25:17.049Z,38.80
2019-02-06T02:27:45.603Z,38.33
2019-02-06T02:30:24.497Z,38.90
2019-02-06T02:32:53.342Z,36.67
2019-02-06T02:35:22.136Z,40.07
2019-02-06T02:37:50.638Z,40.03
2019-02-06T02:40:19.254Z,39.73
2019-02-06T02:42:47.842Z,39.83
2019-02-06T02:45:17.829Z,41.13
2019-02-06T02:47:46.652Z,41.40
2019-02-06T02:50:15.366Z,40.20
2019-02-06T02:52:44.069Z,41.57
2019-02-06T02:55:13.773Z,44.20
2019-02-06T02:57:43.290Z,43.13
2019-02-06T03:00:18.026Z,46.33
2019-02-06T03:03:00.491Z,42.93
2019-02-06T03:05:30.764Z,43.33
2019-02-06T03:07:59.367Z,44.47
2019-02-06T03:10:27.858Z,40.60
2019-02-06T03:12:56.363Z,41.13
2019-02-06T03:15:25.089Z,44.47
2019-02-06T03:17:53.568Z,40.20
2019-02-06T03:20:22.068Z,37.43
2019-02-06T03:22:50.695Z,40.43
2019-02-06T03:25:19.307Z,44.17
2019-02-06T03:27:47.814Z,40.43
2019-02-06T03:30:18.186Z,41.63
2019-02-06T03:32:46.707Z,40.53
2019-02-06T03:35:15.484Z,39.30
2019-02-06T03:37:44.059Z,38.07
2019-02-06T03:40:16.047Z,43.00
2019-02-06T03:42:44.885Z,37.67
2019-02-06T03:45:14.279Z,40.20
2019-02-06T03:47:42.824Z,35.17
2019-02-06T03:50:16.779Z,40.00
2019-02-06T03:52:45.381Z,41.43
2019-02-06T03:55:14.162Z,38.27
2019-02-06T03:57:42.757Z,44.67
2019-02-06T04:00:19.380Z,35.80
2019-02-06T04:02:47.924Z,38.13
2019-02-06T04:05:16.579Z,33.33
2019-02-06T04:07:45.130Z,39.80
2019-02-06T04:10:16.377Z,35.93
2019-02-06T04:12:45.153Z,36.37
2019-02-06T04:15:14.641Z,32.93
2019-02-06T04:17:43.346Z,36.03
2019-02-06T04:20:13.490Z,32.03
2019-02-06T04:22:42.018Z,36.87
2019-02-06T04:25:12.142Z,32.70
2019-02-06T04:27:40.691Z,38.67
2019-02-06T04:30:12.694Z,33.50
2019-02-06T04:32:41.270Z,29.83
2019-02-06T04:35:11.557Z,30.90
2019-02-06T04:37:40.188Z,32.87
2019-02-06T04:40:19.395Z,38.37
2019-02-06T04:42:48.276Z,32.53
2019-02-06T04:45:18.797Z,30.50
2019-02-06T04:47:47.555Z,32.43
2019-02-06T04:50:17.344Z,33.17
2019-02-06T04:52:45.882Z,31.93
2019-02-06T04:55:16.296Z,31.67
2019-02-06T04:57:45.206Z,33.63
2019-02-06T05:00:22.058Z,31.57
2019-02-06T05:02:50.606Z,36.03
2019-02-06T05:05:19.484Z,29.57
2019-02-06T05:07:48.231Z,31.47
2019-02-06T05:10:17.320Z,33.17
2019-02-06T05:12:46.173Z,31.97
2019-02-06T05:15:16.622Z,31.93
2019-02-06T05:17:45.514Z,32.47
2019-02-06T05:20:28.713Z,33.17
2019-02-06T05:22:57.255Z,30.03
2019-02-06T05:25:26.100Z,40.10
2019-02-06T05:27:54.597Z,35.47
2019-02-06T05:30:23.058Z,42.70
2019-02-06T05:32:51.533Z,37.50
2019-02-06T05:35:20.474Z,31.57
2019-02-06T05:37:49.376Z,36.47
2019-02-06T05:40:18.062Z,33.37
2019-02-06T05:42:46.833Z,29.13
2019-02-06T05:45:15.460Z,36.37
2019-02-06T05:47:44.007Z,35.47
2019-02-06T05:50:17.547Z,32.93
2019-02-06T05:52:46.078Z,37.53
2019-02-06T05:55:16.934Z,32.83
2019-02-06T05:57:45.979Z,35.27
2019-02-06T06:00:21.652Z,37.93
2019-02-06T06:02:50.201Z,36.10
2019-02-06T06:05:18.793Z,40.43
2019-02-06T06:07:47.328Z,38.37
2019-02-06T06:10:17.741Z,42.33
2019-02-06T06:12:46.736Z,39.83
2019-02-06T06:15:17.921Z,34.70
2019-02-06T06:17:46.659Z,39.17
2019-02-06T06:20:18.309Z,38.50
2019-02-06T06:22:46.948Z,42.17
2019-02-06T06:25:17.570Z,43.43
2019-02-06T06:27:46.496Z,44.67
2019-02-06T06:30:17.319Z,40.37
2019-02-06T06:32:45.980Z,42.57
2019-02-06T06:35:14.882Z,40.43
2019-02-06T06:37:43.488Z,45.00
2019-02-06T06:40:14.882Z,42.63
2019-02-06T06:42:43.770Z,41.97
2019-02-06T06:45:15.246Z,43.10
2019-02-06T06:47:43.802Z,43.30
2019-02-06T06:50:15.271Z,38.37
2019-02-06T06:52:43.776Z,43.47
2019-02-06T06:55:14.083Z,43.10
2019-02-06T06:57:42.953Z,43.10
2019-02-06T07:00:20.189Z,40.03
2019-02-06T07:02:48.755Z,40.63
2019-02-06T07:05:17.594Z,37.97
2019-02-06T07:07:46.121Z,38.83
2019-02-06T07:10:16.229Z,41.53
2019-02-06T07:12:44.878Z,42.50
2019-02-06T07:15:30.704Z,43.00
2019-02-06T07:17:59.409Z,37.70
2019-02-06T07:20:28.029Z,42.87
2019-02-06T07:22:56.583Z,43.47
2019-02-06T07:25:25.491Z,38.57
2019-02-06T07:27:54.098Z,36.07
2019-02-06T07:30:25.435Z,40.77
2019-02-06T07:32:54.056Z,37.87
2019-02-06T07:35:22.633Z,41.00
2019-02-06T07:37:51.135Z,35.40
2019-02-06T07:40:20.235Z,36.80
2019-02-06T07:42:48.783Z,40.13
2019-02-06T07:45:18.627Z,37.50
2019-02-06T07:47:47.284Z,42.07
2019-02-06T07:50:23.803Z,41.30
2019-02-06T07:52:52.371Z,34.07
2019-02-06T07:55:21.002Z,39.60
2019-02-06T07:57:49.555Z,34.57
2019-02-06T08:00:18.131Z,35.20
2019-02-06T08:02:47.163Z,37.47
2019-02-06T08:05:20.613Z,36.80
2019-02-06T08:07:49.572Z,42.30
2019-02-06T08:10:23.497Z,37.47
2019-02-06T08:12:52.389Z,36.20
2019-02-06T08:15:21.025Z,39.90
2019-02-06T08:17:49.903Z,38.90
2019-02-06T08:20:21.210Z,36.07
2019-02-06T08:22:49.910Z,33.80
2019-02-06T08:25:22.569Z,38.97
2019-02-06T08:27:51.752Z,38.77
2019-02-06T08:30:34.905Z,39.67
2019-02-06T08:33:03.728Z,37.43
2019-02-06T08:35:32.862Z,34.33
2019-02-06T08:38:01.535Z,38.60
2019-02-06T08:40:31.502Z,39.37
2019-02-06T08:43:00.310Z,37.70
2019-02-06T08:45:28.959Z,38.87
2019-02-06T08:47:57.425Z,36.13
2019-02-06T08:50:26.471Z,36.57
2019-02-06T08:52:55.276Z,36.03
2019-02-06T08:55:26.895Z,33.00
2019-02-06T08:57:55.529Z,40.80
2019-02-06T09:00:26.771Z,36.97
2019-02-06T09:02:55.603Z,36.27
2019-02-06T09:05:24.235Z,33.47
2019-02-06T09:07:52.790Z,35.20
2019-02-06T09:10:23.845Z,36.23
2019-02-06T09:12:53.694Z,33.57
2019-02-06T09:15:22.384Z,35.83
2019-02-06T09:17:51.293Z,35.33
2019-02-06T09:20:22.475Z,36.53
2019-02-06T09:22:51.028Z,33.27
2019-02-06T09:25:22.345Z,37.60
2019-02-06T09:27:51.342Z,36.73
2019-02-06T09:30:22.546Z,36.10
2019-02-06T09:32:53.274Z,41.70
2019-02-06T09:35:22.520Z,36.83
2019-02-06T09:37:51.155Z,34.70
2019-02-06T09:40:22.174Z,36.97
2019-02-06T09:42:50.720Z,35.33
2019-02-06T09:45:19.362Z,35.87
2019-02-06T09:47:48.116Z,37.27
2019-02-06T09:50:32.134Z,37.80
2019-02-06T09:53:01.322Z,39.30
2019-02-06T09:55:30.048Z,39.47
2019-02-06T09:57:58.738Z,33.10
2019-02-06T10:00:32.089Z,39.20
2019-02-06T10:03:01.409Z,37.90
2019-02-06T10:05:30.497Z,35.70
2019-02-06T10:07:59.122Z,37.20
2019-02-06T10:10:28.653Z,39.37
2019-02-06T10:12:57.329Z,34.97
2019-02-06T10:15:31.677Z,36.90
2019-02-06T10:18:00.775Z,35.13
2019-02-06T10:20:35.014Z,37.37
2019-02-06T10:23:05.312Z,35.20
2019-02-06T10:25:34.023Z,32.90
2019-02-06T10:28:02.835Z,32.60
2019-02-06T10:30:33.779Z,39.50
2019-02-06T10:33:02.678Z,33.47
2019-02-06T10:35:31.312Z,32.83
2019-02-06T10:37:59.931Z,38.70
2019-02-06T10:40:28.820Z,32.60
2019-02-06T10:42:57.556Z,35.97
2019-02-06T10:45:26.166Z,34.73
2019-02-06T10:47:55.175Z,34.37
2019-02-06T10:50:29.769Z,37.17
2019-02-06T10:52:58.357Z,36.37
2019-02-06T10:55:27.286Z,36.00
2019-02-06T10:57:56.236Z,35.40
2019-02-06T11:00:30.546Z,36.10
2019-02-06T11:02:59.272Z,34.87
2019-02-06T11:05:27.808Z,32.80
2019-02-06T11:07:56.448Z,32.33
2019-02-06T11:10:27.131Z,35.50
2019-02-06T11:12:55.825Z,33.20
2019-02-06T11:15:25.347Z,34.87
2019-02-06T11:17:53.984Z,32.73
2019-02-06T11:20:24.813Z,31.47
2019-02-06T11:22:53.450Z,32.57
2019-02-06T11:25:22.138Z,32.63
2019-02-06T11:27:51.026Z,33.60
2019-02-06T11:30:24.577Z,33.67
2019-02-06T11:32:53.186Z,32.43
2019-02-06T11:35:21.685Z,33.03
2019-02-06T11:37:50.300Z,33.50
2019-02-06T11:40:21.032Z,32.00
2019-02-06T11:42:49.721Z,30.40
2019-02-06T11:45:29.910Z,34.63
2019-02-06T11:47:58.531Z,35.90
2019-02-06T11:50:30.597Z,33.10
2019-02-06T11:52:59.210Z,33.57
2019-02-06T11:55:30.245Z,32.37
2019-02-06T11:57:58.938Z,34.77
2019-02-06T12:00:29.495Z,31.20
2019-02-06T12:02:57.998Z,30.83
2019-02-06T12:05:26.612Z,30.30
2019-02-06T12:07:55.115Z,35.03
2019-02-06T12:10:23.882Z,36.10
2019-02-06T12:12:52.427Z,31.70
2019-02-06T12:15:22.041Z,33.13
2019-02-06T12:17:50.770Z,29.83
2019-02-06T12:20:21.569Z,34.37
2019-02-06T12:22:50.453Z,31.50
2019-02-06T12:25:19.702Z,31.90
2019-02-06T12:27:50.648Z,35.53
2019-02-06T12:30:24.815Z,28.87
2019-02-06T12:32:53.359Z,28.83
2019-02-06T12:35:21.997Z,31.67
2019-02-06T12:37:50.654Z,31.00
2019-02-06T12:40:21.929Z,33.57
2019-02-06T12:42:50.156Z,34.73
2019-02-06T12:45:20.443Z,33.57
2019-02-06T12:47:49.288Z,33.60
2019-02-06T12:50:20.549Z,33.70
2019-02-06T12:52:49.191Z,35.27
2019-02-06T12:55:26.770Z,31.73
2019-02-06T12:57:55.344Z,31.13
2019-02-06T13:00:26.634Z,31.73
2019-02-06T13:02:59.021Z,28.87
2019-02-06T13:05:25.716Z,32.50
2019-02-06T13:07:54.252Z,33.30
2019-02-06T13:10:33.465Z,26.43
2019-02-06T13:12:54.445Z,29.60
2019-02-06T13:15:23.377Z,26.23
2019-02-06T13:17:52.311Z,28.43
2019-02-06T13:20:23.337Z,30.07
2019-02-06T13:22:52.022Z,25.57
2019-02-06T13:25:20.631Z,25.70
2019-02-06T13:27:49.268Z,25.13
2019-02-06T13:30:23.305Z,25.77
2019-02-06T13:32:52.125Z,26.97
2019-02-06T13:35:20.612Z,23.73
2019-02-06T13:37:49.537Z,27.93
2019-02-06T13:40:20.253Z,23.70
2019-02-06T13:42:48.852Z,27.97
2019-02-06T13:45:20.178Z,27.07
2019-02-06T13:47:49.245Z,25.30
2019-02-06T13:50:22.166Z,24.43
2019-02-06T13:52:49.830Z,30.83
2019-02-06T13:55:18.440Z,25.50
2019-02-06T13:57:47.624Z,29.20
2019-02-06T14:00:33.860Z,28.50
2019-02-06T14:03:02.669Z,32.60
2019-02-06T14:05:32.882Z,28.23
2019-02-06T14:08:04.894Z,30.60
2019-02-06T14:10:33.433Z,27.37
2019-02-06T14:13:02.426Z,30.57
2019-02-06T14:15:42.959Z,29.23
2019-02-06T14:18:11.663Z,30.53
2019-02-06T14:20:40.886Z,28.50
2019-02-06T14:23:14.839Z,28.10
2019-02-06T14:25:50.161Z,27.27
2019-02-06T14:28:44.948Z,27.97
2019-02-06T14:31:25.778Z,27.40
2019-02-06T14:33:57.439Z,31.27
2019-02-06T14:36:38.408Z,28.37
2019-02-06T14:39:32.006Z,29.17
2019-02-06T14:42:03.551Z,30.47
2019-02-06T14:44:46.800Z,27.10
2019-02-06T14:47:39.081Z,33.70
2019-02-06T14:50:16.570Z,32.00
2019-02-06T14:53:03.199Z,34.27
2019-02-06T14:55:34.861Z,30.90
2019-02-06T14:58:15.127Z,31.13
2019-02-06T15:00:59.981Z,30.90
2019-02-06T15:03:44.049Z,29.43
2019-02-06T15:06:15.995Z,28.50
2019-02-06T15:09:13.065Z,35.87
2019-02-06T15:12:04.075Z,32.03
2019-02-06T15:14:35.618Z,31.67
2019-02-06T15:17:27.866Z,31.50
2019-02-06T15:20:08.119Z,31.67
2019-02-06T15:22:59.314Z,34.50
2019-02-06T15:25:50.591Z,31.70
2019-02-06T15:28:43.530Z,28.87
2019-02-06T15:31:30.042Z,33.30
2019-02-06T15:34:27.511Z,32.47
2019-02-06T15:37:16.772Z,28.23
2019-02-06T15:40:14.320Z,30.37
2019-02-06T15:42:45.949Z,25.00
2019-02-06T15:45:43.345Z,26.23
2019-02-06T15:48:30.600Z,25.60
2019-02-06T15:51:23.313Z,33.00
2019-02-06T15:54:14.225Z,29.73
2019-02-06T15:57:07.077Z,27.10
2019-02-06T15:59:41.410Z,30.07
2019-02-06T16:02:23.194Z,29.33
2019-02-06T16:05:17.251Z,31.60
2019-02-06T16:07:57.372Z,28.80
2019-02-06T16:10:47.298Z,35.93
2019-02-06T16:13:43.166Z,26.97
2019-02-06T16:16:26.899Z,30.70
2019-02-06T16:19:01.264Z,31.33
2019-02-06T16:21:53.341Z,31.37
2019-02-06T16:24:34.045Z,34.17
2019-02-06T16:27:17.305Z,29.90
2019-02-06T16:30:00.012Z,31.40
2019-02-06T16:32:51.745Z,32.00
2019-02-06T16:35:46.130Z,29.30
2019-02-06T16:38:42.170Z,27.27
2019-02-06T16:41:19.984Z,32.57
2019-02-06T16:44:09.562Z,25.47
2019-02-06T16:47:07.195Z,23.73
2019-02-06T16:49:55.059Z,22.07
2019-02-06T16:52:26.628Z,22.03
2019-02-06T16:55:00.952Z,20.93
2019-02-06T16:57:44.082Z,23.73
2019-02-06T17:00:27.282Z,24.80
2019-02-06T17:03:13.768Z,27.10
2019-02-06T17:05:45.408Z,29.77
2019-02-06T17:08:26.055Z,29.30
2019-02-06T17:11:15.739Z,33.40
2019-02-06T17:14:04.295Z,29.73
2019-02-06T17:16:48.354Z,37.77
2019-02-06T17:19:37.886Z,36.10
2019-02-06T17:22:15.131Z,29.47
2019-02-06T17:24:59.071Z,31.07
2019-02-06T17:27:49.889Z,31.90
2019-02-06T17:30:44.158Z,37.67
2019-02-06T17:33:18.406Z,37.63
2019-02-06T17:36:06.397Z,25.73
2019-02-06T17:38:43.567Z,32.47
2019-02-06T17:41:23.448Z,32.03
2019-02-06T17:44:04.542Z,34.43
2019-02-06T17:46:37.303Z,35.00
2019-02-06T17:49:42.489Z,34.07
2019-02-06T17:52:35.156Z,34.53
2019-02-06T17:55:18.723Z,49.70
2019-02-06T17:57:48.318Z,50.40
2019-02-06T18:00:28.327Z,39.37
2019-02-06T18:02:59.013Z,32.63
2019-02-06T18:05:27.893Z,27.87
2019-02-06T18:07:56.434Z,27.83
2019-02-06T18:10:25.196Z,38.17
2019-02-06T18:12:53.826Z,38.20
2019-02-06T18:15:22.411Z,36.50
2019-02-06T18:17:50.876Z,38.53
2019-02-06T18:20:19.354Z,34.47
2019-02-06T18:22:47.934Z,40.57
2019-02-06T18:25:17.036Z,33.70
2019-02-06T18:27:47.047Z,35.63
2019-02-06T18:30:23.539Z,34.97
2019-02-06T18:32:54.738Z,40.43
2019-02-06T18:35:23.470Z,62.00
2019-02-06T18:37:52.361Z,47.83
2019-02-06T18:40:25.658Z,40.40
2019-02-06T18:42:54.961Z,32.07
2019-02-06T18:45:27.546Z,26.23
2019-02-06T18:47:57.915Z,21.67
2019-02-06T18:50:31.324Z,25.53
2019-02-06T18:53:00.655Z,25.37
2019-02-06T18:55:29.669Z,20.80
2019-02-06T18:57:59.070Z,20.70
2019-02-06T19:00:32.283Z,22.83
2019-02-06T19:03:02.705Z,23.03
2019-02-06T19:05:36.985Z,23.93
2019-02-06T19:08:06.614Z,24.87
2019-02-06T19:10:35.225Z,24.83
2019-02-06T19:13:04.616Z,25.03
2019-02-06T19:15:33.533Z,24.27
2019-02-06T19:18:02.165Z,27.23
2019-02-06T19:20:30.742Z,28.83
2019-02-06T19:22:59.297Z,30.00
2019-02-06T19:25:27.940Z,32.03
2019-02-06T19:27:56.515Z,30.20
2019-02-06T19:30:27.702Z,30.37
2019-02-06T19:32:56.433Z,24.67
2019-02-06T19:35:24.907Z,27.57
2019-02-06T19:37:53.490Z,27.00
2019-02-06T19:40:22.040Z,27.93
2019-02-06T19:42:59.021Z,29.17
2019-02-06T19:45:20.947Z,29.50
2019-02-06T19:47:49.585Z,30.70
2019-02-06T19:50:39.465Z,31.83
2019-02-06T19:53:08.087Z,31.73
2019-02-06T19:55:36.732Z,30.33
2019-02-06T19:58:06.843Z,29.57
2019-02-06T20:00:36.439Z,27.67
2019-02-06T20:03:08.243Z,28.40
2019-02-06T20:05:37.455Z,29.93
2019-02-06T20:08:07.356Z,29.87
2019-02-06T20:10:44.403Z,27.57
2019-02-06T20:13:14.627Z,27.57
2019-02-06T20:15:43.419Z,29.20
2019-02-06T20:18:12.313Z,26.90
2019-02-06T20:20:41.199Z,32.37
2019-02-06T20:23:09.757Z,31.50
2019-02-06T20:25:38.355Z,31.37
2019-02-06T20:28:06.970Z,28.23
2019-02-06T20:30:36.164Z,28.67
2019-02-06T20:33:05.101Z,27.07
2019-02-06T20:35:34.035Z,28.40
2019-02-06T20:38:02.621Z,27.03
2019-02-06T20:40:36.655Z,25.33
2019-02-06T20:43:05.440Z,24.20
2019-02-06T20:45:34.017Z,28.60
2019-02-06T20:48:02.599Z,27.07
2019-02-06T20:50:33.558Z,28.63
2019-02-06T20:53:02.622Z,30.97
2019-02-06T20:55:31.331Z,28.70
2019-02-06T20:57:59.885Z,26.67
2019-02-06T21:00:31.041Z,29.63
2019-02-06T21:02:59.948Z,29.80
2019-02-06T21:05:28.578Z,28.63
2019-02-06T21:07:57.168Z,30.10
2019-02-06T21:10:30.963Z,27.80
2019-02-06T21:12:59.587Z,28.43
2019-02-06T21:15:28.567Z,30.10
2019-02-06T21:17:57.220Z,31.63
2019-02-06T21:20:26.010Z,27.00
2019-02-06T21:22:55.010Z,27.17
2019-02-06T21:25:25.394Z,32.30
2019-02-06T21:27:54.349Z,29.70
2019-02-06T21:30:34.153Z,32.83
2019-02-06T21:33:02.952Z,29.00
2019-02-06T21:35:31.846Z,28.37
2019-02-06T21:38:00.657Z,29.93
2019-02-06T21:40:32.470Z,24.93
2019-02-06T21:43:01.012Z,30.13
2019-02-06T21:45:29.695Z,28.93
2019-02-06T21:47:58.259Z,31.40
2019-02-06T21:50:26.972Z,30.03
2019-02-06T21:52:55.980Z,31.10
2019-02-06T21:55:27.546Z,28.90
2019-02-06T21:57:56.262Z,26.70
2019-02-06T22:00:27.644Z,29.83
2019-02-06T22:02:56.300Z,30.10
2019-02-06T22:05:25.493Z,29.87
2019-02-06T22:07:54.112Z,28.13
2019-02-06T22:10:23.047Z,32.30
2019-02-06T22:12:51.669Z,29.10
2019-02-06T22:15:31.135Z,28.97
2019-02-06T22:17:59.834Z,26.47
2019-02-06T22:20:28.776Z,31.27
2019-02-06T22:22:57.493Z,29.43
2019-02-06T22:25:26.193Z,30.20
2019-02-06T22:27:55.076Z,26.20
2019-02-06T22:30:26.142Z,27.47
2019-02-06T22:32:55.006Z,27.03
2019-02-06T22:35:24.154Z,28.10
2019-02-06T22:37:52.778Z,25.60
2019-02-06T22:40:25.506Z,28.33
2019-02-06T22:42:54.448Z,26.03
2019-02-06T22:45:25.509Z,27.97
2019-02-06T22:47:54.519Z,25.27
2019-02-06T22:50:28.430Z,26.33
2019-02-06T22:52:57.155Z,25.57
2019-02-06T22:55:26.282Z,29.53
2019-02-06T22:57:55.165Z,27.00
2019-02-06T23:00:28.549Z,27.30
2019-02-06T23:02:57.571Z,25.87
2019-02-06T23:05:26.545Z,26.90
2019-02-06T23:07:55.104Z,26.03
2019-02-06T23:10:24.234Z,25.67
2019-02-06T23:12:53.746Z,23.47
2019-02-06T23:15:22.353Z,24.27
2019-02-06T23:17:51.498Z,28.30
2019-02-06T23:20:20.051Z,25.00
2019-02-06T23:22:49.398Z,24.83
2019-02-06T23:25:18.292Z,27.70
2019-02-06T23:27:46.842Z,27.90
2019-02-06T23:30:16.256Z,26.20
2019-02-06T23:32:45.219Z,27.63
2019-02-06T23:35:14.029Z,23.50
2019-02-06T23:37:42.862Z,30.70
2019-02-06T23:40:14.429Z,29.20
2019-02-06T23:42:43.059Z,28.73
2019-02-06T23:45:11.957Z,29.03
2019-02-06T23:47:41.079Z,30.67
2019-02-06T23:50:17.026Z,30.80
2019-02-06T23:52:45.666Z,26.90
2019-02-06T23:55:14.282Z,30.23
2019-02-06T23:57:42.827Z,31.13
